メインページ
METAR-TAF:

METAR-TAF

空港 :

Estevan, サスカチュワン州, カナダ

緯度: 49-13N, 経度: 102-58W, 海抜: 572m

現時点の気象観測

当レポートは24分前の04:20(UTC)に作成
東/南東の風 7kt
気温 -6°C
湿度 93%
気圧 1017 hPa
視程: 4.8km
高度500ftの曇り

METAR: CYEN 270420Z AUTO 11007KT 3SM BR OVC005 M06/M07 A3002 RMK ICG SLP201

時間: 22:44 (04:44 UTC)

予報

当レポートは8時間35分前の20:09(UTC)に作成
予報は26日の 20時(UTC)から 26日の 24時(UTC)まで有効
北/北西の風 8kt
視程: 10km
高度800ftの雲は散在している
高度2500ftの千切れ雲あり
26日の 20時(UTC)から 26日の 24時(UTC)まで一時的に
視程: 8.0km
高度800ftの千切れ雲あり
高度2000ftの曇り
小雪, 靄

TAF: CYEN 262009Z 2620/2624 33008KT P6SM SCT008 BKN025 TEMPO 2620/2624 5SM -SN BR BKN008 OVC020 RMK FCST BASED ON AUTO OBS. NXT FCST WILL BE ISSUED AT 271145Z

4,000以上の空港の気象観測と天気予報(METAR報とTAF報)

利用可能な観測所は地図上に黄色い丸と赤い丸で示す。

丸の上にカーソルを重ねると観測所名を参照できる。

次にクリックすると気象観測と天気予報を参照できる。

マップの切り替え:黒色「×」印の緑ボタンをクリックして拡大、「-」印の緑ボタンをクリックして縮小、緑色の三角印をクリックして隣りの地図に切り替え


METAR-TAF: